createdAt,value
2023-01-10T00:00:25.886Z,10.15
2023-01-10T00:02:52.745Z,13.40
2023-01-10T00:05:19.785Z,7.72
2023-01-10T00:07:47.118Z,11.32
2023-01-10T00:10:14.195Z,9.57
2023-01-10T00:12:59.739Z,9.38
2023-01-10T00:15:26.668Z,10.73
2023-01-10T00:17:53.461Z,14.88
2023-01-10T00:20:20.535Z,16.20
2023-01-10T00:22:47.709Z,13.75
2023-01-10T00:25:14.944Z,15.02
2023-01-10T00:27:42.065Z,10.65
2023-01-10T00:30:14.152Z,14.40
2023-01-10T00:32:45.091Z,11.38
2023-01-10T00:35:12.828Z,17.75
2023-01-10T00:37:40.371Z,12.32
2023-01-10T00:40:11.393Z,13.40
2023-01-10T00:42:57.320Z,16.33
2023-01-10T00:45:25.152Z,19.60
2023-01-10T00:47:52.426Z,14.00
2023-01-10T00:50:19.399Z,14.52
2023-01-10T00:52:46.199Z,14.50
2023-01-10T00:55:12.953Z,16.33
2023-01-10T00:57:39.685Z,21.20
2023-01-10T01:00:09.239Z,17.27
2023-01-10T01:02:36.543Z,14.13
2023-01-10T01:05:04.512Z,18.08
2023-01-10T01:07:31.396Z,17.00
2023-01-10T01:10:16.745Z,25.38
2023-01-10T01:12:43.602Z,16.25
2023-01-10T01:15:10.353Z,16.40
2023-01-10T01:17:37.088Z,12.63
2023-01-10T01:20:04.375Z,22.50
2023-01-10T01:22:31.187Z,19.10
2023-01-10T01:24:57.952Z,13.95
2023-01-10T01:27:24.732Z,16.98
2023-01-10T01:29:51.469Z,15.43
2023-01-10T01:32:18.931Z,15.38
2023-01-10T01:34:45.808Z,18.13
2023-01-10T01:37:12.583Z,10.88
2023-01-10T01:39:39.476Z,12.93
2023-01-10T01:42:06.946Z,13.88
2023-01-10T01:44:39.402Z,15.60
2023-01-10T01:47:27.337Z,12.15
2023-01-10T01:49:54.918Z,21.17
2023-01-10T01:52:30.712Z,16.85
2023-01-10T01:54:59.178Z,19.60
2023-01-10T01:57:28.463Z,19.23
2023-01-10T01:59:56.510Z,17.00
2023-01-10T02:02:30.655Z,21.75
2023-01-10T02:05:03.424Z,16.02
2023-01-10T02:07:34.941Z,20.77
2023-01-10T02:10:06.873Z,23.40
2023-01-10T02:12:33.950Z,21.67
2023-01-10T02:15:01.860Z,14.93
2023-01-10T02:17:28.663Z,12.88
2023-01-10T02:20:03.169Z,27.80
2023-01-10T02:22:57.202Z,21.75
2023-01-10T02:25:42.602Z,23.25
2023-01-10T02:28:41.195Z,21.10
2023-01-10T02:31:20.055Z,18.75
2023-01-10T02:34:10.478Z,20.88
2023-01-10T02:37:27.614Z,19.77
2023-01-10T02:40:00.216Z,20.40
2023-01-10T02:42:35.807Z,18.10
2023-01-10T02:45:12.553Z,22.33
2023-01-10T02:47:41.127Z,18.17
2023-01-10T02:50:25.802Z,13.02
2023-01-10T02:52:52.778Z,22.75
2023-01-10T02:55:24.440Z,15.65
2023-01-10T02:58:03.321Z,22.63
2023-01-10T03:01:10.969Z,14.60
2023-01-10T03:04:03.610Z,23.92
2023-01-10T03:06:56.929Z,15.27
2023-01-10T03:09:35.218Z,18.58
2023-01-10T03:12:10.392Z,18.95
2023-01-10T03:14:38.670Z,21.05
2023-01-10T03:17:09.074Z,15.85
2023-01-10T03:19:40.634Z,12.48
2023-01-10T03:22:10.954Z,20.98
2023-01-10T03:24:43.819Z,19.92
2023-01-10T03:29:50.619Z,15.35
2023-01-10T03:32:21.189Z,20.92
2023-01-10T03:34:48.099Z,17.77
2023-01-10T03:37:30.050Z,17.33
2023-01-10T03:40:22.596Z,17.67
2023-01-10T03:43:37.389Z,14.00
2023-01-10T03:46:10.603Z,21.52
2023-01-10T03:48:41.368Z,17.80
2023-01-10T03:51:09.962Z,20.92
2023-01-10T03:53:39.436Z,21.60
2023-01-10T03:56:07.333Z,15.55
2023-01-10T03:58:34.257Z,20.55
2023-01-10T04:01:01.205Z,19.52
2023-01-10T04:03:27.971Z,18.45
2023-01-10T04:05:54.707Z,14.95
2023-01-10T04:08:21.445Z,15.73
2023-01-10T04:10:51.276Z,15.75
2023-01-10T04:13:18.051Z,17.20
2023-01-10T04:15:44.818Z,21.17
2023-01-10T04:18:13.014Z,26.45
2023-01-10T04:20:39.801Z,22.65
2023-01-10T04:23:06.504Z,18.70
2023-01-10T04:25:33.313Z,18.52
2023-01-10T04:28:00.016Z,18.15
2023-01-10T04:30:27.275Z,19.10
2023-01-10T04:32:54.098Z,25.80
2023-01-10T04:35:20.936Z,15.23
2023-01-10T04:37:47.659Z,21.35
2023-01-10T04:40:17.259Z,22.65
2023-01-10T04:42:44.004Z,16.30
2023-01-10T04:45:13.550Z,21.98
2023-01-10T04:47:40.327Z,23.35
2023-01-10T04:50:07.325Z,23.52
2023-01-10T04:52:34.109Z,20.00
2023-01-10T04:55:00.822Z,26.85
2023-01-10T04:57:27.559Z,22.55
2023-01-10T04:59:54.268Z,14.88
2023-01-10T05:02:21.041Z,18.02
2023-01-10T05:04:47.847Z,16.15
2023-01-10T05:07:15.016Z,13.70
2023-01-10T05:09:42.739Z,20.05
2023-01-10T05:12:09.482Z,21.13
2023-01-10T05:14:36.209Z,19.42
2023-01-10T05:17:02.943Z,18.15
2023-01-10T05:19:29.625Z,17.95
2023-01-10T05:21:56.578Z,15.80
2023-01-10T05:24:23.274Z,22.75
2023-01-10T05:26:49.970Z,14.93
2023-01-10T05:29:16.759Z,18.60
2023-01-10T05:31:43.552Z,18.05
2023-01-10T05:34:13.085Z,20.38
2023-01-10T05:36:40.207Z,25.02
2023-01-10T05:39:07.071Z,18.08
2023-01-10T05:41:34.026Z,13.00
2023-01-10T05:44:00.800Z,22.35
2023-01-10T05:46:27.531Z,16.40
2023-01-10T05:48:54.266Z,18.23
2023-01-10T05:51:20.973Z,20.77
2023-01-10T05:53:48.538Z,21.27
2023-01-10T05:56:16.422Z,20.45
2023-01-10T05:58:44.333Z,18.02
2023-01-10T06:01:13.853Z,17.02
2023-01-10T06:03:40.688Z,16.38
2023-01-10T06:06:07.679Z,12.18
2023-01-10T06:08:36.907Z,17.42
2023-01-10T06:11:04.987Z,11.80
2023-01-10T06:13:32.039Z,17.58
2023-01-10T06:15:59.215Z,17.77
2023-01-10T06:18:26.228Z,23.27
2023-01-10T06:20:53.133Z,15.20
2023-01-10T06:23:19.884Z,19.80
2023-01-10T06:25:46.730Z,19.85
2023-01-10T06:28:14.417Z,19.77
2023-01-10T06:30:43.360Z,18.80
2023-01-10T06:33:11.422Z,16.30
2023-01-10T06:35:39.082Z,25.55
2023-01-10T06:38:05.972Z,22.33
2023-01-10T06:40:32.807Z,23.40
2023-01-10T06:42:59.748Z,22.65
2023-01-10T06:45:26.471Z,21.27
2023-01-10T06:47:53.343Z,17.08
2023-01-10T06:50:20.209Z,22.63
2023-01-10T06:52:47.002Z,23.15
2023-01-10T06:55:13.713Z,22.38
2023-01-10T06:57:40.484Z,16.73
2023-01-10T07:00:08.984Z,22.27
2023-01-10T07:02:36.834Z,23.38
2023-01-10T07:05:03.779Z,23.85
2023-01-10T07:07:30.821Z,21.45
2023-01-10T07:09:59.681Z,25.23
2023-01-10T07:12:26.574Z,21.13
2023-01-10T07:14:53.371Z,18.98
2023-01-10T07:17:20.275Z,27.50
2023-01-10T07:19:46.966Z,20.23
2023-01-10T07:22:13.738Z,20.92
2023-01-10T07:24:40.489Z,20.45
2023-01-10T07:27:07.334Z,21.00
2023-01-10T07:29:34.147Z,24.92
2023-01-10T07:32:00.958Z,20.58
2023-01-10T07:34:27.741Z,34.13
2023-01-10T07:36:54.506Z,23.20
2023-01-10T07:39:21.232Z,26.80
2023-01-10T07:41:48.799Z,24.90
2023-01-10T07:44:16.253Z,17.63
2023-01-10T07:46:43.229Z,19.65
2023-01-10T07:49:10.130Z,28.88
2023-01-10T07:51:36.868Z,30.80
2023-01-10T07:54:03.896Z,26.48
2023-01-10T07:56:30.961Z,23.52
2023-01-10T07:58:57.702Z,23.27
2023-01-10T08:01:26.017Z,15.85
2023-01-10T08:03:53.289Z,18.65
2023-01-10T08:06:20.653Z,19.55
2023-01-10T08:08:47.330Z,28.27
2023-01-10T08:11:14.102Z,25.60
2023-01-10T08:13:41.083Z,13.98
2023-01-10T08:16:09.058Z,19.63
2023-01-10T08:18:35.997Z,25.05
2023-01-10T08:21:02.983Z,26.65
2023-01-10T08:23:30.163Z,23.20
2023-01-10T08:25:58.840Z,25.52
2023-01-10T08:28:25.652Z,31.02
2023-01-10T08:30:55.678Z,28.58
2023-01-10T08:33:23.943Z,28.40
2023-01-10T08:35:51.540Z,28.85
2023-01-10T08:38:18.482Z,33.97
2023-01-10T08:40:45.313Z,27.65
2023-01-10T08:43:12.731Z,22.52
2023-01-10T08:45:39.495Z,27.52
2023-01-10T08:48:09.239Z,30.33
2023-01-10T08:50:36.254Z,22.38
2023-01-10T08:53:03.101Z,18.33
2023-01-10T08:55:31.175Z,18.05
2023-01-10T08:58:03.605Z,16.95
2023-01-10T09:00:30.860Z,18.58
2023-01-10T09:02:57.971Z,18.70
2023-01-10T09:05:28.335Z,24.65
2023-01-10T09:08:02.768Z,21.67
2023-01-10T09:10:30.292Z,18.33
2023-01-10T09:13:01.746Z,24.67
2023-01-10T09:15:36.689Z,24.45
2023-01-10T09:18:05.806Z,18.85
2023-01-10T09:20:35.390Z,24.85
2023-01-10T09:23:07.794Z,24.58
2023-01-10T09:25:35.175Z,22.27
2023-01-10T09:28:03.550Z,24.77
2023-01-10T09:30:31.197Z,19.83
2023-01-10T09:32:59.100Z,28.77
2023-01-10T09:35:27.096Z,24.98
2023-01-10T09:37:58.929Z,25.35
2023-01-10T09:40:44.214Z,26.88
2023-01-10T09:43:28.500Z,32.58
2023-01-10T09:46:23.734Z,23.00
2023-01-10T09:49:05.747Z,31.40
2023-01-10T09:51:38.334Z,26.27
2023-01-10T09:54:29.914Z,26.98
2023-01-10T09:56:59.811Z,36.15
2023-01-10T09:59:33.378Z,29.58
2023-01-10T10:02:05.843Z,30.52
2023-01-10T10:04:36.605Z,28.33
2023-01-10T10:07:07.342Z,26.52
2023-01-10T10:09:35.385Z,25.17
2023-01-10T10:12:31.088Z,26.65
2023-01-10T10:15:04.217Z,22.10
2023-01-10T10:17:52.298Z,27.52
2023-01-10T10:20:24.915Z,32.75
2023-01-10T10:23:06.607Z,22.17
2023-01-10T10:25:47.569Z,23.75
2023-01-10T10:28:31.718Z,23.10
2023-01-10T10:31:01.304Z,25.50
2023-01-10T10:33:48.875Z,28.27
2023-01-10T10:36:26.296Z,26.10
2023-01-10T10:38:57.410Z,27.98
2023-01-10T10:41:35.462Z,23.58
2023-01-10T10:44:26.457Z,20.65
2023-01-10T10:46:53.851Z,21.17
2023-01-10T10:49:41.649Z,17.15
2023-01-10T10:52:25.611Z,22.73
2023-01-10T10:54:53.908Z,23.92
2023-01-10T10:57:27.252Z,19.77
2023-01-10T10:59:54.761Z,26.90
2023-01-10T11:02:28.167Z,22.30
2023-01-10T11:05:04.717Z,27.05
2023-01-10T11:07:37.151Z,25.15
2023-01-10T11:10:20.981Z,31.92
2023-01-10T11:12:51.165Z,18.65
2023-01-10T11:15:42.725Z,20.85
2023-01-10T11:18:21.467Z,23.13
2023-01-10T11:20:58.150Z,15.07
2023-01-10T11:23:36.968Z,16.35
2023-01-10T11:26:26.467Z,24.67
2023-01-10T11:29:06.623Z,20.67
2023-01-10T11:31:34.802Z,21.55
2023-01-10T11:34:05.853Z,20.40
2023-01-10T11:36:58.312Z,31.10
2023-01-10T11:39:26.657Z,17.48
2023-01-10T11:41:53.541Z,23.83
2023-01-10T11:44:26.772Z,19.17
2023-01-10T11:47:05.318Z,24.83
2023-01-10T11:49:38.653Z,19.83
2023-01-10T11:52:15.876Z,26.23
2023-01-10T11:54:43.058Z,18.45
2023-01-10T11:57:23.465Z,21.52
2023-01-10T11:59:54.111Z,20.70
2023-01-10T12:02:23.162Z,21.98
2023-01-10T12:04:52.352Z,23.33
2023-01-10T12:07:19.210Z,23.08
2023-01-10T12:09:56.321Z,15.18
2023-01-10T12:12:31.786Z,27.85
2023-01-10T12:15:00.465Z,18.85
2023-01-10T12:17:36.923Z,23.95
2023-01-10T12:20:12.739Z,23.13
2023-01-10T12:22:42.691Z,23.65
2023-01-10T12:25:19.123Z,25.52
2023-01-10T12:27:50.083Z,19.27
2023-01-10T12:30:31.150Z,20.52
2023-01-10T12:33:02.035Z,18.48
2023-01-10T12:35:40.737Z,19.17
2023-01-10T12:38:48.372Z,15.70
2023-01-10T12:41:42.621Z,22.25
2023-01-10T12:44:43.390Z,24.70
2023-01-10T12:47:22.100Z,21.65
2023-01-10T12:50:01.326Z,18.52
2023-01-10T12:52:42.789Z,20.02
2023-01-10T12:55:15.024Z,17.63
2023-01-10T12:57:45.120Z,18.75
2023-01-10T13:00:48.501Z,20.52
2023-01-10T13:03:24.631Z,18.45
2023-01-10T13:05:53.075Z,14.20
2023-01-10T13:08:25.089Z,26.30
2023-01-10T13:10:55.037Z,16.40
2023-01-10T13:13:35.431Z,16.92
2023-01-10T13:16:21.034Z,14.77
2023-01-10T13:19:04.981Z,18.98
2023-01-10T13:21:33.864Z,13.45
2023-01-10T13:24:06.411Z,16.05
2023-01-10T13:27:05.821Z,18.30
2023-01-10T13:29:43.305Z,17.98
2023-01-10T13:32:36.436Z,21.52
2023-01-10T13:35:19.892Z,21.05
2023-01-10T13:37:53.511Z,23.98
2023-01-10T13:40:28.242Z,15.30
2023-01-10T13:43:31.402Z,13.52
2023-01-10T13:46:18.517Z,16.88
2023-01-10T13:48:51.532Z,25.05
2023-01-10T13:53:51.639Z,17.17
2023-01-10T13:56:32.912Z,17.60
2023-01-10T13:59:18.319Z,19.92
2023-01-10T14:02:10.620Z,14.88
2023-01-10T14:04:47.905Z,16.40
2023-01-10T14:07:31.455Z,22.73
2023-01-10T14:10:11.067Z,19.73
2023-01-10T14:12:55.226Z,21.23
2023-01-10T14:15:29.726Z,21.08
2023-01-10T14:17:58.212Z,19.80
2023-01-10T14:20:25.667Z,25.15
2023-01-10T14:23:05.679Z,17.77
2023-01-10T14:25:37.769Z,20.45
2023-01-10T14:28:06.118Z,14.40
2023-01-10T14:30:35.941Z,19.40
2023-01-10T14:33:13.575Z,23.65
2023-01-10T14:35:47.182Z,27.13
2023-01-10T14:38:29.486Z,18.73
2023-01-10T14:41:01.781Z,14.37
2023-01-10T14:43:37.471Z,21.65
2023-01-10T14:46:04.436Z,21.27
2023-01-10T14:48:34.391Z,23.25
2023-01-10T14:51:22.618Z,16.55
2023-01-10T14:54:01.518Z,21.33
2023-01-10T14:56:41.802Z,18.02
2023-01-10T14:59:25.251Z,17.50
2023-01-10T15:02:03.809Z,19.38
2023-01-10T15:04:36.306Z,23.95
2023-01-10T15:07:11.897Z,19.38
2023-01-10T15:09:39.329Z,16.92
2023-01-10T15:12:12.448Z,20.20
2023-01-10T15:14:39.416Z,17.58
2023-01-10T15:17:09.044Z,22.52
2023-01-10T15:19:38.265Z,26.05
2023-01-10T15:22:31.082Z,24.52
2023-01-10T15:25:08.078Z,24.70
2023-01-10T15:27:36.910Z,19.52
2023-01-10T15:30:09.048Z,28.98
2023-01-10T15:32:39.473Z,22.83
2023-01-10T15:35:08.869Z,27.58
2023-01-10T15:37:39.262Z,22.27
2023-01-10T15:40:19.388Z,25.83
2023-01-10T15:42:46.185Z,24.95
2023-01-10T15:45:37.716Z,23.52
2023-01-10T15:48:05.234Z,32.40
2023-01-10T15:50:33.800Z,22.02
2023-01-10T15:53:07.234Z,32.25
2023-01-10T15:55:50.482Z,23.27
2023-01-10T16:00:53.289Z,20.93
2023-01-10T16:03:39.105Z,24.10
2023-01-10T16:06:12.366Z,24.70
2023-01-10T16:08:39.198Z,20.48
2023-01-10T16:11:39.609Z,25.90
2023-01-10T16:14:06.374Z,21.50
2023-01-10T16:16:33.386Z,25.25
2023-01-10T16:19:02.800Z,20.88
2023-01-10T16:21:35.609Z,23.70
2023-01-10T16:24:03.359Z,25.38
2023-01-10T16:26:30.354Z,23.90
2023-01-10T16:28:57.208Z,18.52
2023-01-10T16:31:24.047Z,15.18
2023-01-10T16:33:50.827Z,22.25
2023-01-10T16:36:20.864Z,13.10
2023-01-10T16:38:48.107Z,22.00
2023-01-10T16:41:33.612Z,19.95
2023-01-10T16:44:00.823Z,18.30
2023-01-10T16:46:28.157Z,19.58
2023-01-10T16:48:55.128Z,18.50
2023-01-10T16:51:27.641Z,16.75
2023-01-10T16:53:54.981Z,14.95
2023-01-10T16:56:27.403Z,24.70
2023-01-10T16:58:55.413Z,16.20
2023-01-10T17:01:26.439Z,18.65
2023-01-10T17:03:54.088Z,17.58
2023-01-10T17:06:21.080Z,20.50
2023-01-10T17:08:49.513Z,14.95
2023-01-10T17:11:40.380Z,11.05
2023-01-10T17:14:09.343Z,14.20
2023-01-10T17:16:36.206Z,10.45
2023-01-10T17:19:03.005Z,10.70
2023-01-10T17:21:29.823Z,20.08
2023-01-10T17:23:56.586Z,9.25
2023-01-10T17:26:23.391Z,12.32
2023-01-10T17:28:50.376Z,10.45
2023-01-10T17:31:19.756Z,6.05
2023-01-10T17:33:48.637Z,13.82
2023-01-10T17:36:17.582Z,11.13
2023-01-10T17:38:45.700Z,6.32
2023-01-10T17:41:12.414Z,11.77
2023-01-10T17:43:39.572Z,14.43
2023-01-10T17:46:06.714Z,6.22
2023-01-10T17:48:34.764Z,6.68
2023-01-10T17:51:02.891Z,12.95
2023-01-10T17:53:30.381Z,14.65
2023-01-10T17:55:58.318Z,7.78
2023-01-10T17:58:25.377Z,11.35
2023-01-10T18:00:52.268Z,9.13
2023-01-10T18:03:19.302Z,8.60
2023-01-10T18:05:54.540Z,10.68
2023-01-10T18:08:21.844Z,7.68
2023-01-10T18:10:49.371Z,9.10
2023-01-10T18:13:17.598Z,11.48
2023-01-10T18:15:47.309Z,11.20
2023-01-10T18:18:14.094Z,10.85
2023-01-10T18:20:44.487Z,9.35
2023-01-10T18:23:22.122Z,8.95
2023-01-10T18:26:02.319Z,6.00
2023-01-10T18:28:40.520Z,6.82
2023-01-10T18:31:18.713Z,4.95
2023-01-10T18:33:46.753Z,7.72
2023-01-10T18:36:17.397Z,9.85
2023-01-10T18:38:45.826Z,8.25
2023-01-10T18:41:13.045Z,10.90
2023-01-10T18:43:40.046Z,3.60
2023-01-10T18:46:12.794Z,7.65
2023-01-10T18:48:40.166Z,7.90
2023-01-10T18:51:08.984Z,5.15
2023-01-10T18:53:35.921Z,5.68
2023-01-10T18:56:05.176Z,6.78
2023-01-10T18:58:40.585Z,5.22
2023-01-10T19:01:08.154Z,3.72
2023-01-10T19:03:35.552Z,5.80
2023-01-10T19:06:04.013Z,3.65
2023-01-10T19:08:31.000Z,2.17
2023-01-10T19:11:12.417Z,6.05
2023-01-10T19:13:40.783Z,5.57
2023-01-10T19:16:13.629Z,3.35
2023-01-10T19:18:41.126Z,3.65
2023-01-10T19:21:14.819Z,4.82
2023-01-10T19:23:46.173Z,5.68
2023-01-10T19:26:13.915Z,5.03
2023-01-10T19:28:42.002Z,3.05
2023-01-10T19:31:09.163Z,2.33
2023-01-10T19:33:37.593Z,3.75
2023-01-10T19:36:06.755Z,4.35
2023-01-10T19:38:34.058Z,7.10
2023-01-10T19:41:00.867Z,3.20
2023-01-10T19:43:28.096Z,5.05
2023-01-10T19:45:55.137Z,5.22
2023-01-10T19:48:23.021Z,3.95
2023-01-10T19:50:49.806Z,2.63
2023-01-10T19:53:16.831Z,2.97
2023-01-10T19:55:43.550Z,2.95
2023-01-10T19:58:10.394Z,2.33
2023-01-10T20:00:37.254Z,3.95
2023-01-10T20:03:05.232Z,3.63
2023-01-10T20:05:34.750Z,2.33
2023-01-10T20:08:02.112Z,1.67
2023-01-10T20:10:28.979Z,1.77
2023-01-10T20:12:55.769Z,2.95
2023-01-10T20:15:22.582Z,3.40
2023-01-10T20:17:49.357Z,2.22
2023-01-10T20:20:19.551Z,1.60
2023-01-10T20:22:47.832Z,2.22
2023-01-10T20:25:14.728Z,1.88
2023-01-10T20:27:41.613Z,3.15
2023-01-10T20:30:09.305Z,2.10
2023-01-10T20:32:36.127Z,0.98
2023-01-10T20:35:02.915Z,2.88
2023-01-10T20:37:29.834Z,1.42
2023-01-10T20:39:57.012Z,1.85
2023-01-10T20:42:23.835Z,1.20
2023-01-10T20:44:50.602Z,2.45
2023-01-10T20:47:17.579Z,2.25
2023-01-10T20:49:44.420Z,3.85
2023-01-10T20:52:11.235Z,1.35
2023-01-10T20:54:38.854Z,2.13
2023-01-10T20:57:05.779Z,2.58
2023-01-10T20:59:33.721Z,2.70
2023-01-10T21:02:02.106Z,3.58
2023-01-10T21:04:29.694Z,2.15
2023-01-10T21:06:56.547Z,0.75
2023-01-10T21:09:23.399Z,1.45
2023-01-10T21:12:02.095Z,1.65
2023-01-10T21:14:34.189Z,1.13
2023-01-10T21:17:01.007Z,1.90
2023-01-10T21:19:27.862Z,1.05
2023-01-10T21:21:54.734Z,2.33
2023-01-10T21:24:22.941Z,0.65
2023-01-10T21:26:49.793Z,0.73
2023-01-10T21:29:16.640Z,0.45
2023-01-10T21:31:43.441Z,1.65
2023-01-10T21:34:10.223Z,0.77
2023-01-10T21:36:37.087Z,1.45
2023-01-10T21:39:03.965Z,0.50
2023-01-10T21:41:49.395Z,2.30
2023-01-10T21:44:16.125Z,1.17
2023-01-10T21:46:44.648Z,0.68
2023-01-10T21:49:11.505Z,1.23
2023-01-10T21:51:38.346Z,2.17
2023-01-10T21:54:05.140Z,0.32
2023-01-10T21:56:32.075Z,1.92
2023-01-10T21:58:58.844Z,1.05
2023-01-10T22:01:25.654Z,1.75
2023-01-10T22:03:52.652Z,1.45
2023-01-10T22:06:19.491Z,1.85
2023-01-10T22:08:46.342Z,4.47
2023-01-10T22:11:13.076Z,1.23
2023-01-10T22:13:40.423Z,0.63
2023-01-10T22:16:07.637Z,0.63
2023-01-10T22:18:34.436Z,0.95
2023-01-10T22:21:01.385Z,0.65
2023-01-10T22:23:29.829Z,0.55
2023-01-10T22:26:07.986Z,0.70
2023-01-10T22:28:34.939Z,0.43
2023-01-10T22:31:02.409Z,2.72
2023-01-10T22:33:35.187Z,1.60
2023-01-10T22:36:13.656Z,0.70
2023-01-10T22:38:41.687Z,1.92
2023-01-10T22:41:13.941Z,2.33
2023-01-10T22:43:41.155Z,0.88
2023-01-10T22:46:09.675Z,0.77
2023-01-10T22:48:37.500Z,0.55
2023-01-10T22:51:05.590Z,0.80
2023-01-10T22:53:32.862Z,1.77
2023-01-10T22:56:00.806Z,4.18
2023-01-10T22:58:27.756Z,1.70
2023-01-10T23:00:54.528Z,1.52
2023-01-10T23:03:21.673Z,1.08
2023-01-10T23:05:48.642Z,0.63
2023-01-10T23:08:15.477Z,1.38
2023-01-10T23:10:42.308Z,2.28
2023-01-10T23:13:09.253Z,2.78
2023-01-10T23:15:36.006Z,2.05
2023-01-10T23:18:02.777Z,1.73
2023-01-10T23:20:29.553Z,0.50
2023-01-10T23:22:56.380Z,0.85
2023-01-10T23:25:23.209Z,1.75
2023-01-10T23:27:49.967Z,2.35
2023-01-10T23:30:16.990Z,0.70
2023-01-10T23:32:43.787Z,1.40
2023-01-10T23:35:10.675Z,0.82
2023-01-10T23:37:37.464Z,0.47
2023-01-10T23:40:04.610Z,2.08
2023-01-10T23:42:31.438Z,0.30
2023-01-10T23:44:58.185Z,0.85
2023-01-10T23:47:24.992Z,0.95
2023-01-10T23:49:51.800Z,1.05
2023-01-10T23:52:18.639Z,2.97
2023-01-10T23:54:45.352Z,0.65
2023-01-10T23:57:12.086Z,3.78
2023-01-10T23:59:38.822Z,0.55
